Coastal Messenger — CFL9726 — position and weather

sailwx.info

Track history (hours):
 
Tides and Currents Weather Stations Pressure Air Temp Water Temp Dewpoint Dewpoint Depression Visibility Wind Speed Wind Dir Waves Ship Positions

Coastal Messenger

Last reported at 2015-May-16 20:31 UTC. Time now 2015-May-22 10:01 UTC.
Position N 49°36' W 126°36'.

Length 16 m.

Type: Pleasure craft. MMSI: 316016342.

Date/timePositionNaut miles runAvg speedWind from/ knotsBaromVisibWave heightAir tempDewpointWater temp
2015-May-16 20:31N 49°36' W 126°36'1 0.0
2015-May-15 04:09N 49°36' W 126°37'12 7.2
2015-May-15 02:33N 49°24' W 126°38'6 5.9
2015-May-15 01:33N 49°22' W 126°29'2 2.0
2015-May-15 00:23N 49°24' W 126°27'0 0.0
2015-May-14 23:14N 49°24' W 126°27'  
2015-May-10 23:27N 49°09' W 125°54'0 0.2
2015-May-10 22:29N 49°09' W 125°54'0 0.0
2015-May-10 08:29N 49°09' W 125°54'0 0.0
2015-May-10 06:26N 49°09' W 125°54'0 0.0
2015-May-09 23:29N 49°09' W 125°54'0 0.0
2015-May-09 19:29N 49°09' W 125°54'0 0.0
2015-May-08 22:08N 49°09' W 125°54'15 3.2
2015-May-08 17:32N 48°57' W 125°42'7 7.6
2015-May-08 16:33N 48°55' W 125°31'2 1.8
2015-May-08 15:31N 48°57' W 125°33'0 0.0
2015-May-08 14:31N 48°57' W 125°33'0 0.0
2015-May-08 13:31N 48°57' W 125°33'0 0.0
2015-May-08 12:31N 48°57' W 125°33'0 0.0
2015-May-08 11:31N 48°57' W 125°33'0 0.0
2015-May-08 10:31N 48°57' W 125°33'0 0.0
2015-May-08 09:31N 48°57' W 125°33'0 0.0
2015-May-08 08:31N 48°57' W 125°33'0 0.0
2015-May-08 07:31N 48°57' W 125°33'0 0.0
2015-May-08 06:31N 48°57' W 125°33'0 0.0
2015-May-08 05:31N 48°57' W 125°33'0 0.0
2015-May-08 04:31N 48°57' W 125°33'0 0.0
2015-May-08 03:28N 48°57' W 125°33'0 0.0
2015-May-08 02:28N 48°57' W 125°33'0 0.0
2015-May-08 01:31N 48°57' W 125°33'0 0.0
2015-May-08 00:31N 48°57' W 125°33'0 0.0
2015-May-07 23:28N 48°57' W 125°33'0 0.0
2015-May-07 22:31N 48°57' W 125°33'0 0.0
2015-May-07 21:31N 48°57' W 125°33'0 0.0
2015-May-07 20:31N 48°57' W 125°33'0 0.0
2015-May-07 19:31N 48°57' W 125°33'0 0.0
2015-May-07 18:31N 48°57' W 125°33'0 0.0
2015-May-07 17:31N 48°57' W 125°33'0 0.0
2015-May-07 16:31N 48°57' W 125°33'0 0.0
2015-May-07 15:31N 48°57' W 125°33'0 0.0
2015-May-07 14:31N 48°57' W 125°33'0 0.0
2015-May-07 13:31N 48°57' W 125°33'0 0.0
2015-May-07 12:31N 48°57' W 125°33'0 0.0
2015-May-07 11:31N 48°57' W 125°33'0 0.0
2015-May-07 10:31N 48°57' W 125°33'0 0.0
2015-May-07 09:28N 48°57' W 125°33'0 0.0
2015-May-07 08:31N 48°57' W 125°33'0 0.0
2015-May-07 07:31N 48°57' W 125°33'0 0.0
2015-May-07 06:31N 48°57' W 125°33'0 0.0
2015-May-07 05:28N 48°57' W 125°33'0 0.0
2015-May-07 04:31N 48°57' W 125°33'0 0.0
2015-May-07 03:31N 48°57' W 125°33'0 0.0
2015-May-07 02:31N 48°57' W 125°33'0 0.0
2015-May-07 01:28N 48°57' W 125°33'0 0.0
2015-May-07 00:31N 48°57' W 125°33'0 0.0
2015-May-06 23:28N 48°57' W 125°33'0 0.0
2015-May-06 22:31N 48°57' W 125°33'0 0.0
2015-May-06 21:28N 48°57' W 125°33'1 0.9
2015-May-06 20:32N 48°56' W 125°32'  
Track history (hours):
 
Tides and Currents Weather Stations Pressure Air Temp Water Temp Dewpoint Dewpoint Depression Visibility Wind Speed Wind Dir Waves Ship Positions

Coastal Messenger

Last reported at 2015-May-16 20:31 UTC. Time now 2015-May-22 10:01 UTC.
Position N 49°36' W 126°36'.

Length 16 m.

Type: Pleasure craft. MMSI: 316016342.

Date/timePositionNaut miles runAvg speedWind from/ knotsBaromVisibWave heightAir tempDewpointWater temp
2015-May-16 20:31N 49°36' W 126°36'1 0.0
2015-May-15 04:09N 49°36' W 126°37'12 7.2
2015-May-15 02:33N 49°24' W 126°38'6 5.9
2015-May-15 01:33N 49°22' W 126°29'2 2.0
2015-May-15 00:23N 49°24' W 126°27'0 0.0
2015-May-14 23:14N 49°24' W 126°27'  
2015-May-10 23:27N 49°09' W 125°54'0 0.2
2015-May-10 22:29N 49°09' W 125°54'0 0.0
2015-May-10 08:29N 49°09' W 125°54'0 0.0
2015-May-10 06:26N 49°09' W 125°54'0 0.0
2015-May-09 23:29N 49°09' W 125°54'0 0.0
2015-May-09 19:29N 49°09' W 125°54'0 0.0
2015-May-08 22:08N 49°09' W 125°54'15 3.2
2015-May-08 17:32N 48°57' W 125°42'7 7.6
2015-May-08 16:33N 48°55' W 125°31'2 1.8
2015-May-08 15:31N 48°57' W 125°33'0 0.0
2015-May-08 14:31N 48°57' W 125°33'0 0.0
2015-May-08 13:31N 48°57' W 125°33'0 0.0
2015-May-08 12:31N 48°57' W 125°33'0 0.0
2015-May-08 11:31N 48°57' W 125°33'0 0.0
2015-May-08 10:31N 48°57' W 125°33'0 0.0
2015-May-08 09:31N 48°57' W 125°33'0 0.0
2015-May-08 08:31N 48°57' W 125°33'0 0.0
2015-May-08 07:31N 48°57' W 125°33'0 0.0
2015-May-08 06:31N 48°57' W 125°33'0 0.0
2015-May-08 05:31N 48°57' W 125°33'0 0.0
2015-May-08 04:31N 48°57' W 125°33'0 0.0
2015-May-08 03:28N 48°57' W 125°33'0 0.0
2015-May-08 02:28N 48°57' W 125°33'0 0.0
2015-May-08 01:31N 48°57' W 125°33'0 0.0
2015-May-08 00:31N 48°57' W 125°33'0 0.0
2015-May-07 23:28N 48°57' W 125°33'0 0.0
2015-May-07 22:31N 48°57' W 125°33'0 0.0
2015-May-07 21:31N 48°57' W 125°33'0 0.0
2015-May-07 20:31N 48°57' W 125°33'0 0.0
2015-May-07 19:31N 48°57' W 125°33'0 0.0
2015-May-07 18:31N 48°57' W 125°33'0 0.0
2015-May-07 17:31N 48°57' W 125°33'0 0.0
2015-May-07 16:31N 48°57' W 125°33'0 0.0
2015-May-07 15:31N 48°57' W 125°33'0 0.0
2015-May-07 14:31N 48°57' W 125°33'0 0.0
2015-May-07 13:31N 48°57' W 125°33'0 0.0
2015-May-07 12:31N 48°57' W 125°33'0 0.0
2015-May-07 11:31N 48°57' W 125°33'0 0.0
2015-May-07 10:31N 48°57' W 125°33'0 0.0
2015-May-07 09:28N 48°57' W 125°33'0 0.0
2015-May-07 08:31N 48°57' W 125°33'0 0.0
2015-May-07 07:31N 48°57' W 125°33'0 0.0
2015-May-07 06:31N 48°57' W 125°33'0 0.0
2015-May-07 05:28N 48°57' W 125°33'0 0.0
2015-May-07 04:31N 48°57' W 125°33'0 0.0
2015-May-07 03:31N 48°57' W 125°33'0 0.0
2015-May-07 02:31N 48°57' W 125°33'0 0.0
2015-May-07 01:28N 48°57' W 125°33'0 0.0
2015-May-07 00:31N 48°57' W 125°33'0 0.0
2015-May-06 23:28N 48°57' W 125°33'0 0.0
2015-May-06 22:31N 48°57' W 125°33'0 0.0
2015-May-06 21:28N 48°57' W 125°33'1 0.9
2015-May-06 20:32N 48°56' W 125°32'  

Dump ship's entire track history